createdAt,value
2024-01-20T00:01:09.141Z,32.03
2024-01-20T00:03:36.958Z,31.17
2024-01-20T00:06:04.906Z,31.27
2024-01-20T00:08:32.376Z,31.65
2024-01-20T00:10:59.994Z,30.98
2024-01-20T00:13:27.686Z,31.88
2024-01-20T00:15:55.144Z,31.25
2024-01-20T00:18:22.988Z,31.60
2024-01-20T00:20:51.286Z,32.30
2024-01-20T00:23:18.869Z,31.58
2024-01-20T00:25:46.512Z,32.90
2024-01-20T00:28:13.999Z,30.63
2024-01-20T00:30:41.688Z,31.95
2024-01-20T00:33:09.873Z,32.20
2024-01-20T00:35:38.166Z,32.08
2024-01-20T00:38:05.637Z,31.73
2024-01-20T00:40:32.989Z,32.75
2024-01-20T00:43:00.480Z,32.55
2024-01-20T00:45:27.881Z,31.42
2024-01-20T00:47:55.378Z,31.15
2024-01-20T00:50:23.775Z,32.40
2024-01-20T00:52:51.228Z,31.88
2024-01-20T00:55:18.977Z,32.97
2024-01-20T00:57:47.079Z,30.95
2024-01-20T01:00:14.996Z,32.20
2024-01-20T01:02:42.748Z,32.45
2024-01-20T01:05:10.732Z,32.25
2024-01-20T01:07:38.403Z,31.77
2024-01-20T01:10:07.892Z,32.00
2024-01-20T01:12:36.370Z,31.05
2024-01-20T01:15:06.210Z,30.92
2024-01-20T01:17:34.163Z,30.00
2024-01-20T01:20:02.031Z,30.80
2024-01-20T01:22:29.490Z,30.35
2024-01-20T01:24:56.859Z,31.42
2024-01-20T01:27:24.266Z,30.45
2024-01-20T01:29:52.156Z,31.48
2024-01-20T01:32:20.462Z,30.88
2024-01-20T01:34:48.044Z,30.58
2024-01-20T01:37:15.928Z,30.13
2024-01-20T01:39:44.039Z,31.23
2024-01-20T01:42:11.517Z,30.35
2024-01-20T01:44:39.024Z,28.95
2024-01-20T01:47:06.671Z,30.70
2024-01-20T01:49:34.100Z,30.90
2024-01-20T01:52:01.512Z,31.83
2024-01-20T01:54:29.097Z,31.10
2024-01-20T01:57:01.266Z,30.27
2024-01-20T01:59:34.131Z,29.65
2024-01-20T02:02:01.485Z,30.42
2024-01-20T02:04:28.926Z,29.98
2024-01-20T02:06:56.845Z,29.58
2024-01-20T02:09:25.842Z,30.48
2024-01-20T02:11:54.819Z,31.60
2024-01-20T02:14:22.714Z,31.70
2024-01-20T02:16:50.262Z,31.00
2024-01-20T02:19:17.625Z,31.63
2024-01-20T02:21:45.018Z,30.98
2024-01-20T02:24:13.255Z,30.45
2024-01-20T02:26:40.706Z,30.17
2024-01-20T02:29:08.103Z,31.40
2024-01-20T02:31:35.458Z,31.85
2024-01-20T02:34:03.062Z,31.25
2024-01-20T02:36:30.584Z,31.65
2024-01-20T02:38:58.116Z,31.13
2024-01-20T02:41:25.918Z,31.20
2024-01-20T02:43:53.260Z,30.00
2024-01-20T02:46:20.914Z,30.55
2024-01-20T02:48:48.360Z,31.27
2024-01-20T02:51:15.838Z,31.40
2024-01-20T02:53:43.451Z,32.13
2024-01-20T02:56:10.813Z,31.30
2024-01-20T02:58:38.241Z,30.20
2024-01-20T03:01:07.742Z,30.10
2024-01-20T03:03:35.332Z,30.80
2024-01-20T03:06:03.634Z,30.17
2024-01-20T03:08:31.137Z,31.25
2024-01-20T03:10:58.542Z,30.52
2024-01-20T03:13:25.968Z,31.00
2024-01-20T03:15:53.371Z,31.30
2024-01-20T03:18:20.869Z,30.83
2024-01-20T03:20:48.506Z,31.50
2024-01-20T03:23:16.176Z,31.20
2024-01-20T03:25:43.677Z,31.00
2024-01-20T03:28:11.084Z,34.20
2024-01-20T03:30:38.505Z,30.92
2024-01-20T03:33:06.402Z,30.25
2024-01-20T03:35:33.846Z,31.65
2024-01-20T03:38:01.289Z,30.50
2024-01-20T03:40:29.833Z,30.45
2024-01-20T03:42:57.564Z,29.02
2024-01-20T03:45:24.974Z,29.65
2024-01-20T03:47:52.763Z,28.23
2024-01-20T03:50:20.353Z,28.67
2024-01-20T03:52:48.374Z,28.92
2024-01-20T03:55:15.774Z,29.17
2024-01-20T03:57:43.240Z,28.52
2024-01-20T04:00:11.227Z,29.23
2024-01-20T04:02:38.819Z,27.88
2024-01-20T04:05:07.274Z,28.75
2024-01-20T04:07:34.703Z,28.50
2024-01-20T04:10:02.398Z,28.48
2024-01-20T04:12:29.984Z,28.63
2024-01-20T04:14:57.628Z,29.75
2024-01-20T04:17:25.122Z,28.17
2024-01-20T04:19:52.491Z,29.40
2024-01-20T04:22:19.945Z,28.00
2024-01-20T04:24:47.318Z,28.80
2024-01-20T04:27:14.757Z,28.67
2024-01-20T04:29:42.170Z,28.20
2024-01-20T04:32:09.577Z,27.75
2024-01-20T04:34:37.073Z,26.33
2024-01-20T04:37:04.599Z,28.13
2024-01-20T04:39:32.146Z,28.08
2024-01-20T04:41:59.618Z,27.88
2024-01-20T04:44:27.011Z,28.23
2024-01-20T04:46:54.374Z,27.67
2024-01-20T04:49:21.803Z,27.98
2024-01-20T04:51:49.238Z,28.23
2024-01-20T04:54:16.620Z,28.95
2024-01-20T04:56:44.008Z,28.70
2024-01-20T04:59:11.390Z,27.45
2024-01-20T05:01:40.842Z,29.23
2024-01-20T05:04:08.487Z,28.08
2024-01-20T05:06:35.970Z,28.63
2024-01-20T05:09:03.914Z,29.38
2024-01-20T05:11:31.307Z,28.33
2024-01-20T05:13:58.753Z,28.00
2024-01-20T05:16:26.130Z,29.67
2024-01-20T05:18:53.870Z,28.23
2024-01-20T05:21:21.617Z,27.98
2024-01-20T05:23:49.816Z,28.50
2024-01-20T05:26:17.200Z,30.80
2024-01-20T05:28:50.240Z,28.88
2024-01-20T05:31:25.607Z,29.10
2024-01-20T05:33:53.352Z,29.13
2024-01-20T05:36:20.942Z,29.50
2024-01-20T05:38:48.413Z,29.08
2024-01-20T05:41:15.844Z,27.85
2024-01-20T05:43:43.287Z,28.75
2024-01-20T05:46:11.043Z,28.40
2024-01-20T05:48:38.963Z,29.40
2024-01-20T05:51:06.880Z,26.75
2024-01-20T05:53:34.261Z,28.38
2024-01-20T05:56:01.675Z,28.05
2024-01-20T05:58:29.186Z,28.13
2024-01-20T06:00:56.829Z,28.77
2024-01-20T06:03:27.183Z,27.83
2024-01-20T06:05:55.334Z,28.95
2024-01-20T06:08:23.049Z,27.17
2024-01-20T06:10:51.448Z,28.45
2024-01-20T06:13:20.039Z,26.83
2024-01-20T06:15:47.405Z,27.75
2024-01-20T06:18:14.913Z,28.38
2024-01-20T06:20:42.375Z,26.52
2024-01-20T06:23:10.166Z,27.50
2024-01-20T06:25:37.743Z,25.23
2024-01-20T06:28:06.903Z,28.67
2024-01-20T06:30:34.456Z,27.08
2024-01-20T06:33:01.948Z,28.50
2024-01-20T06:35:29.411Z,26.83
2024-01-20T06:37:58.677Z,26.70
2024-01-20T06:40:26.294Z,25.38
2024-01-20T06:42:53.932Z,25.92
2024-01-20T06:45:21.655Z,25.15
2024-01-20T06:47:49.193Z,24.45
2024-01-20T06:50:17.213Z,24.95
2024-01-20T06:52:44.749Z,26.50
2024-01-20T06:55:12.250Z,24.92
2024-01-20T06:57:39.776Z,27.48
2024-01-20T07:00:09.636Z,24.05
2024-01-20T07:02:37.267Z,24.17
2024-01-20T07:05:06.361Z,23.70
2024-01-20T07:07:38.359Z,23.17
2024-01-20T07:10:09.884Z,23.60
2024-01-20T07:12:38.263Z,25.27
2024-01-20T07:15:06.966Z,27.23
2024-01-20T07:17:35.465Z,24.45
2024-01-20T07:20:02.983Z,22.33
2024-01-20T07:22:32.547Z,21.98
2024-01-20T07:25:00.013Z,22.08
2024-01-20T07:27:27.444Z,21.67
2024-01-20T07:29:54.878Z,21.13
2024-01-20T07:32:22.386Z,21.02
2024-01-20T07:34:50.029Z,21.45
2024-01-20T07:37:17.953Z,21.42
2024-01-20T07:39:48.086Z,20.55
2024-01-20T07:42:16.063Z,20.73
2024-01-20T07:44:43.500Z,20.35
2024-01-20T07:47:12.106Z,25.73
2024-01-20T07:49:39.726Z,22.27
2024-01-20T07:52:07.225Z,20.40
2024-01-20T07:54:34.765Z,19.75
2024-01-20T07:57:02.534Z,20.70
2024-01-20T07:59:30.345Z,19.30
2024-01-20T08:01:57.782Z,20.50
2024-01-20T08:04:25.275Z,21.42
2024-01-20T08:06:53.632Z,20.90
2024-01-20T08:09:21.323Z,19.65
2024-01-20T08:11:48.929Z,20.38
2024-01-20T08:14:16.702Z,20.30
2024-01-20T08:16:44.123Z,20.73
2024-01-20T08:19:12.062Z,20.33
2024-01-20T08:21:39.556Z,18.88
2024-01-20T08:24:07.176Z,20.83
2024-01-20T08:26:34.570Z,19.63
2024-01-20T08:29:02.952Z,19.20
2024-01-20T08:31:30.348Z,19.83
2024-01-20T08:33:57.873Z,19.55
2024-01-20T08:36:25.370Z,20.15
2024-01-20T08:38:52.804Z,19.20
2024-01-20T08:41:20.221Z,18.90
2024-01-20T08:43:48.857Z,19.48
2024-01-20T08:46:16.318Z,17.90
2024-01-20T08:48:43.800Z,18.00
2024-01-20T08:51:11.255Z,17.75
2024-01-20T08:53:40.699Z,18.38
2024-01-20T08:56:10.307Z,17.10
2024-01-20T08:58:37.724Z,17.77
2024-01-20T09:01:07.620Z,17.27
2024-01-20T09:03:35.438Z,16.90
2024-01-20T09:06:03.825Z,18.55
2024-01-20T09:08:31.418Z,17.38
2024-01-20T09:10:59.619Z,17.58
2024-01-20T09:13:27.415Z,17.33
2024-01-20T09:15:55.532Z,17.33
2024-01-20T09:18:24.973Z,18.02
2024-01-20T09:20:52.760Z,17.80
2024-01-20T09:23:20.410Z,17.58
2024-01-20T09:25:48.937Z,17.38
2024-01-20T09:28:16.518Z,18.25
2024-01-20T09:30:44.054Z,18.15
2024-01-20T09:33:11.642Z,17.83
2024-01-20T09:35:39.257Z,17.88
2024-01-20T09:38:06.727Z,17.88
2024-01-20T09:40:36.267Z,18.85
2024-01-20T09:43:05.490Z,19.60
2024-01-20T09:45:39.451Z,18.98
2024-01-20T09:48:08.605Z,17.83
2024-01-20T09:50:36.273Z,17.88
2024-01-20T09:53:12.848Z,18.17
2024-01-20T09:55:43.286Z,17.40
2024-01-20T09:58:17.104Z,16.77
2024-01-20T10:00:45.281Z,17.13
2024-01-20T10:03:13.513Z,17.63
2024-01-20T10:05:41.297Z,17.73
2024-01-20T10:08:08.824Z,17.80
2024-01-20T10:10:36.321Z,17.20
2024-01-20T10:13:04.083Z,18.52
2024-01-20T10:15:34.683Z,17.85
2024-01-20T10:18:12.127Z,17.30
2024-01-20T10:20:40.229Z,16.65
2024-01-20T10:23:08.594Z,16.52
2024-01-20T10:25:36.899Z,16.98
2024-01-20T10:28:04.736Z,16.92
2024-01-20T10:30:32.824Z,16.80
2024-01-20T10:35:31.104Z,18.42
2024-01-20T10:38:02.021Z,17.75
2024-01-20T10:40:29.478Z,16.38
2024-01-20T10:43:08.806Z,16.98
2024-01-20T10:45:48.225Z,17.05
2024-01-20T10:48:28.174Z,17.98
2024-01-20T10:51:01.397Z,16.63
2024-01-20T10:53:29.230Z,17.27
2024-01-20T10:55:59.417Z,16.48
2024-01-20T10:58:57.822Z,16.25
2024-01-20T11:01:26.667Z,16.02
2024-01-20T11:03:54.269Z,16.48
2024-01-20T11:06:25.331Z,17.17
2024-01-20T11:08:53.523Z,17.05
2024-01-20T11:11:28.317Z,15.75
2024-01-20T11:14:02.874Z,16.40
2024-01-20T11:16:38.036Z,16.05
2024-01-20T11:19:10.872Z,16.40
2024-01-20T11:24:06.677Z,16.27
2024-01-20T11:26:38.644Z,16.65
2024-01-20T11:29:09.796Z,17.97
2024-01-20T11:31:37.207Z,16.70
2024-01-20T11:34:07.288Z,15.50
2024-01-20T11:36:35.883Z,16.05
2024-01-20T11:39:06.166Z,15.88
2024-01-20T11:41:33.754Z,15.35
2024-01-20T11:44:01.554Z,15.65
2024-01-20T11:46:29.570Z,15.57
2024-01-20T11:48:57.095Z,15.57
2024-01-20T11:51:24.943Z,16.42
2024-01-20T11:53:52.951Z,16.65
2024-01-20T11:56:20.333Z,16.70
2024-01-20T11:58:48.091Z,14.70
2024-01-20T12:01:17.538Z,14.98
2024-01-20T12:03:45.509Z,15.75
2024-01-20T12:06:16.287Z,15.57
2024-01-20T12:08:46.410Z,14.63
2024-01-20T12:11:22.882Z,14.38
2024-01-20T12:13:50.900Z,14.68
2024-01-20T12:16:19.274Z,15.00
2024-01-20T12:18:47.463Z,14.75
2024-01-20T12:21:15.075Z,14.82
2024-01-20T12:23:42.520Z,14.00
2024-01-20T12:26:14.864Z,16.38
2024-01-20T12:28:47.722Z,16.30
2024-01-20T12:31:18.383Z,14.52
2024-01-20T12:36:15.344Z,14.60
2024-01-20T12:38:42.786Z,14.40
2024-01-20T12:41:11.139Z,15.38
2024-01-20T12:43:38.732Z,14.82
2024-01-20T12:46:06.295Z,14.23
2024-01-20T12:48:33.891Z,13.43
2024-01-20T12:51:01.858Z,13.43
2024-01-20T12:53:29.538Z,13.95
2024-01-20T12:55:57.162Z,14.60
2024-01-20T12:58:24.543Z,13.50
2024-01-20T13:00:52.135Z,13.75
2024-01-20T13:03:19.646Z,14.13
2024-01-20T13:05:47.279Z,12.90
2024-01-20T13:08:15.067Z,13.35
2024-01-20T13:10:51.162Z,14.02
2024-01-20T13:13:19.793Z,13.90
2024-01-20T13:15:47.410Z,12.98
2024-01-20T13:18:15.411Z,13.02
2024-01-20T13:20:43.651Z,13.10
2024-01-20T13:23:11.165Z,12.77
2024-01-20T13:25:40.869Z,12.75
2024-01-20T13:28:08.423Z,13.38
2024-01-20T13:30:35.885Z,13.05
2024-01-20T13:33:03.628Z,13.32
2024-01-20T13:35:31.137Z,12.73
2024-01-20T13:37:58.531Z,12.82
2024-01-20T13:40:26.832Z,12.15
2024-01-20T13:42:54.401Z,12.35
2024-01-20T13:45:22.258Z,12.15
2024-01-20T13:47:49.675Z,11.30
2024-01-20T13:50:18.031Z,12.45
2024-01-20T13:52:45.403Z,12.07
2024-01-20T13:55:15.023Z,11.52
2024-01-20T13:57:42.444Z,11.73
2024-01-20T14:00:13.187Z,11.77
2024-01-20T14:02:48.364Z,12.52
2024-01-20T14:05:18.888Z,11.77
2024-01-20T14:07:46.523Z,11.38
2024-01-20T14:10:14.141Z,11.82
2024-01-20T14:12:41.585Z,11.55
2024-01-20T14:15:09.379Z,23.90
2024-01-20T14:17:36.908Z,22.65
2024-01-20T14:20:04.886Z,13.07
2024-01-20T14:22:32.248Z,10.35
2024-01-20T14:25:03.139Z,10.18
2024-01-20T14:27:30.683Z,9.38
2024-01-20T14:29:58.046Z,11.85
2024-01-20T14:32:25.710Z,15.10
2024-01-20T14:34:53.548Z,13.55
2024-01-20T14:37:20.934Z,10.10
2024-01-20T14:39:48.381Z,9.80
2024-01-20T14:42:15.923Z,10.25
2024-01-20T14:44:43.427Z,10.10
2024-01-20T14:47:11.015Z,9.88
2024-01-20T14:49:38.531Z,10.80
2024-01-20T14:52:06.252Z,10.55
2024-01-20T14:54:33.748Z,10.48
2024-01-20T14:57:01.185Z,13.82
2024-01-20T14:59:28.811Z,10.30
2024-01-20T15:01:56.249Z,11.20
2024-01-20T15:04:23.810Z,11.10
2024-01-20T15:06:51.728Z,11.27
2024-01-20T15:09:19.218Z,10.68
2024-01-20T15:11:46.875Z,11.52
2024-01-20T15:14:14.279Z,10.43
2024-01-20T15:16:42.923Z,11.00
2024-01-20T15:19:11.327Z,11.63
2024-01-20T15:21:39.383Z,10.70
2024-01-20T15:24:07.225Z,10.98
2024-01-20T15:26:34.995Z,10.13
2024-01-20T15:29:02.372Z,11.48
2024-01-20T15:31:29.854Z,15.48
2024-01-20T15:33:58.453Z,16.55
2024-01-20T15:36:26.123Z,11.10
2024-01-20T15:38:53.656Z,11.77
2024-01-20T15:41:21.591Z,11.70
2024-01-20T15:43:49.469Z,10.30
2024-01-20T15:46:22.204Z,10.60
2024-01-20T15:48:49.749Z,10.77
2024-01-20T15:51:18.206Z,11.23
2024-01-20T15:53:46.554Z,10.75
2024-01-20T15:56:15.062Z,12.00
2024-01-20T15:58:42.764Z,12.20
2024-01-20T16:01:10.253Z,10.93
2024-01-20T16:03:37.799Z,10.55
2024-01-20T16:06:05.964Z,10.93
2024-01-20T16:08:33.411Z,10.82
2024-01-20T16:11:00.792Z,11.10
2024-01-20T16:13:28.220Z,10.57
2024-01-20T16:15:55.664Z,10.70
2024-01-20T16:18:23.399Z,11.25
2024-01-20T16:20:51.017Z,10.77
2024-01-20T16:23:21.028Z,10.75
2024-01-20T16:25:48.558Z,11.10
2024-01-20T16:28:15.967Z,11.63
2024-01-20T16:30:43.786Z,10.73
2024-01-20T16:33:11.361Z,10.80
2024-01-20T16:35:38.941Z,11.75
2024-01-20T16:38:06.468Z,12.30
2024-01-20T16:40:34.108Z,13.27
2024-01-20T16:43:01.873Z,14.52
2024-01-20T16:45:29.344Z,21.45
2024-01-20T16:47:57.385Z,15.52
2024-01-20T16:50:24.918Z,13.50
2024-01-20T16:52:52.351Z,15.52
2024-01-20T16:55:19.766Z,15.95
2024-01-20T16:57:49.037Z,16.15
2024-01-20T17:00:17.292Z,18.23
2024-01-20T17:02:44.869Z,17.13
2024-01-20T17:05:12.285Z,24.90
2024-01-20T17:07:39.734Z,19.80
2024-01-20T17:10:08.030Z,15.57
2024-01-20T17:12:35.479Z,14.57
2024-01-20T17:15:03.033Z,14.57
2024-01-20T17:17:30.459Z,12.57
2024-01-20T17:19:59.887Z,12.60
2024-01-20T17:22:27.478Z,14.38
2024-01-20T17:24:55.124Z,26.85
2024-01-20T17:27:24.724Z,28.17
2024-01-20T17:29:52.130Z,24.50
2024-01-20T17:32:19.490Z,19.30
2024-01-20T17:34:46.893Z,17.60
2024-01-20T17:37:14.341Z,27.63
2024-01-20T17:39:42.131Z,15.65
2024-01-20T17:42:10.933Z,16.48
2024-01-20T17:44:38.670Z,23.40
2024-01-20T17:47:06.782Z,23.85
2024-01-20T17:49:35.275Z,16.40
2024-01-20T17:52:03.854Z,15.65
2024-01-20T17:54:33.103Z,14.30
2024-01-20T17:57:01.570Z,19.77
2024-01-20T17:59:30.116Z,15.77
2024-01-20T18:01:57.743Z,11.80
2024-01-20T18:04:25.279Z,12.18
2024-01-20T18:06:53.758Z,12.32
2024-01-20T18:09:21.433Z,16.60
2024-01-20T18:11:49.728Z,15.68
2024-01-20T18:14:17.444Z,13.10
2024-01-20T18:16:45.722Z,13.40
2024-01-20T18:19:13.289Z,32.03
2024-01-20T18:21:40.914Z,42.80
2024-01-20T18:24:09.186Z,31.20
2024-01-20T18:26:36.592Z,29.58
2024-01-20T18:29:04.092Z,39.45
2024-01-20T18:31:31.503Z,36.70
2024-01-20T18:33:59.554Z,35.65
2024-01-20T18:36:27.184Z,42.17
2024-01-20T18:38:54.777Z,32.03
2024-01-20T18:41:22.671Z,35.90
2024-01-20T18:43:50.133Z,25.90
2024-01-20T18:46:17.554Z,21.70
2024-01-20T18:48:45.072Z,20.10
2024-01-20T18:51:12.673Z,19.13
2024-01-20T18:53:42.646Z,17.65
2024-01-20T18:56:10.089Z,17.65
2024-01-20T18:58:38.773Z,17.33
2024-01-20T19:01:06.429Z,15.82
2024-01-20T19:03:34.306Z,17.58
2024-01-20T19:06:02.666Z,17.00
2024-01-20T19:08:30.376Z,14.68
2024-01-20T19:10:57.771Z,16.67
2024-01-20T19:13:25.476Z,37.60
2024-01-20T19:15:53.399Z,24.75
2024-01-20T19:18:21.247Z,19.63
2024-01-20T19:20:48.870Z,17.77
2024-01-20T19:23:17.161Z,19.95
2024-01-20T19:25:44.744Z,18.58
2024-01-20T19:28:12.226Z,14.55
2024-01-20T19:30:39.741Z,15.90
2024-01-20T19:33:07.347Z,16.70
2024-01-20T19:35:34.781Z,14.82
2024-01-20T19:38:03.137Z,13.75
2024-01-20T19:40:30.541Z,12.70
2024-01-20T19:42:58.850Z,13.00
2024-01-20T19:45:26.229Z,13.18
2024-01-20T19:47:53.820Z,13.65
2024-01-20T19:50:21.253Z,19.77
2024-01-20T19:52:48.962Z,15.00
2024-01-20T19:55:16.613Z,12.77
2024-01-20T19:57:44.202Z,13.10
2024-01-20T20:00:12.651Z,14.32
2024-01-20T20:02:40.307Z,12.73
2024-01-20T20:05:07.977Z,13.50
2024-01-20T20:07:35.901Z,12.65
2024-01-20T20:10:03.834Z,13.07
2024-01-20T20:12:31.891Z,13.23
2024-01-20T20:14:59.549Z,15.85
2024-01-20T20:17:26.930Z,12.85
2024-01-20T20:19:57.872Z,13.70
2024-01-20T20:22:25.554Z,13.48
2024-01-20T20:24:53.247Z,14.43
2024-01-20T20:27:22.753Z,12.85
2024-01-20T20:29:50.457Z,13.38
2024-01-20T20:32:21.747Z,12.95
2024-01-20T20:34:57.881Z,12.95
2024-01-20T20:37:25.573Z,13.25
2024-01-20T20:39:56.621Z,13.90
2024-01-20T20:42:24.485Z,11.77
2024-01-20T20:44:52.539Z,11.68
2024-01-20T20:47:23.052Z,11.77
2024-01-20T20:49:51.749Z,11.15
2024-01-20T20:52:19.381Z,15.52
2024-01-20T20:54:49.663Z,13.40
2024-01-20T20:57:19.055Z,13.13
2024-01-20T20:59:46.537Z,12.00
2024-01-20T21:02:14.088Z,13.50
2024-01-20T21:04:41.646Z,13.40
2024-01-20T21:07:09.176Z,11.55
2024-01-20T21:09:36.698Z,12.52
2024-01-20T21:12:04.544Z,12.68
2024-01-20T21:14:32.043Z,11.43
2024-01-20T21:16:59.552Z,11.20
2024-01-20T21:19:27.393Z,11.23
2024-01-20T21:21:57.235Z,12.02
2024-01-20T21:24:25.737Z,12.25
2024-01-20T21:26:54.537Z,13.48
2024-01-20T21:29:21.905Z,13.05
2024-01-20T21:31:49.546Z,14.75
2024-01-20T21:34:16.991Z,13.10
2024-01-20T21:36:44.486Z,13.25
2024-01-20T21:39:13.202Z,12.15
2024-01-20T21:41:40.557Z,12.52
2024-01-20T21:44:08.127Z,12.65
2024-01-20T21:46:36.811Z,13.30
2024-01-20T21:49:05.198Z,12.98
2024-01-20T21:51:32.946Z,13.07
2024-01-20T21:54:00.379Z,11.27
2024-01-20T21:56:28.065Z,11.60
2024-01-20T21:58:55.711Z,11.13
2024-01-20T22:01:25.298Z,11.65
2024-01-20T22:03:52.998Z,12.27
2024-01-20T22:06:20.880Z,11.85
2024-01-20T22:08:48.298Z,10.65
2024-01-20T22:11:15.892Z,11.85
2024-01-20T22:13:43.653Z,10.85
2024-01-20T22:16:11.127Z,11.50
2024-01-20T22:18:38.759Z,12.77
2024-01-20T22:21:13.330Z,11.02
2024-01-20T22:23:43.662Z,11.00
2024-01-20T22:26:21.964Z,11.55
2024-01-20T22:28:49.958Z,10.50
2024-01-20T22:31:17.528Z,11.88
2024-01-20T22:33:44.960Z,11.70
2024-01-20T22:36:12.500Z,11.48
2024-01-20T22:38:40.019Z,10.60
2024-01-20T22:41:07.407Z,10.80
2024-01-20T22:43:34.827Z,10.68
2024-01-20T22:46:02.209Z,9.88
2024-01-20T22:48:34.761Z,9.98
2024-01-20T22:51:03.533Z,14.18
2024-01-20T22:53:33.076Z,11.18
2024-01-20T22:56:00.493Z,10.45
2024-01-20T22:58:27.981Z,10.73
2024-01-20T23:00:55.533Z,9.85
2024-01-20T23:03:23.076Z,10.20
2024-01-20T23:05:50.515Z,10.32
2024-01-20T23:08:18.920Z,10.25
2024-01-20T23:10:46.382Z,10.20
2024-01-20T23:13:13.789Z,9.77
2024-01-20T23:15:41.431Z,10.38
2024-01-20T23:18:09.316Z,9.73
2024-01-20T23:20:37.575Z,9.10
2024-01-20T23:23:05.465Z,8.82
2024-01-20T23:25:32.840Z,9.88
2024-01-20T23:28:00.387Z,10.15
2024-01-20T23:30:31.509Z,9.57
2024-01-20T23:32:59.895Z,10.75
2024-01-20T23:35:27.622Z,10.43
2024-01-20T23:37:55.500Z,9.88
2024-01-20T23:40:22.876Z,8.80
2024-01-20T23:42:50.283Z,9.38
2024-01-20T23:45:18.946Z,9.52
2024-01-20T23:47:46.532Z,9.93
2024-01-20T23:50:14.453Z,10.23
2024-01-20T23:52:41.839Z,8.70
2024-01-20T23:55:09.557Z,10.07
2024-01-20T23:57:39.879Z,8.68
